ADDS METAR Data INFO

IDs: Format: Raw Decoded Include TAF

Data at: 1524 UTC 22 Oct 2014

Region: TOP
KATL 221452Z 01010KT 10SM CLR 14/03 A3012 RMK AO2 SLP197 T01390033 51016

KBOS 221517Z 02017G25KT 2SM -DZ BR OVC009 11/11 A3000 RMK AO2 PK WND 02031/1505 P0000

KBWI 221518Z 34010KT 6SM -RA BR SCT014 BKN022 OVC028 12/11 A2991 RMK AO2 P0001

KCLE 221451Z 36010G17KT 10SM OVC016 09/06 A3029 RMK AO2 SLP260 T00890056 51017 $

KCLT 221452Z 33012G20KT 10SM CLR 14/02 A3009 RMK AO2 SLP187 T01440017 51017

KCVG 221503Z 01006KT 10SM FEW023 BKN028 10/04 A3029 RMK AO2

KDCA 221452Z 35014KT 5SM -RA SCT025 OVC060 14/10 A2993 RMK AO2 SLP135 P0009 60031 T01390100 50009

KDEN 221453Z 17010KT 10SM FEW080 SCT120 SCT200 12/07 A3010 RMK AO2 SLP143 T01220067 53018

KDFW 221453Z 13006KT 6SM HZ FEW250 22/17 A3015 RMK AO2 SLP204 T02170167 51018

KDTW 221453Z 36007KT 10SM OVC020 08/04 A3034 RMK AO2 SLP277 T00830039 51016

KEWR 221451Z 01014KT 10SM FEW010 BKN015 OVC025 12/11 A2992 RMK AO2 RAE24 SLP132 CIG 014V018 P0000 60009 T01220111 50002

KFLL 221453Z 32004KT 10SM FEW027 SCT100 OVC240 27/22 A2998 RMK AO2 SLP150 T02670222 51011

KIAD 221452Z 34013KT 10SM -RA FEW019 BKN030 12/09 A2995 RMK AO2 RAB50 SLP142 P0000 60011 T01220089 51007

KIAH 221453Z 07006KT 10SM FEW180 22/17 A3011 RMK AO2 SLP195 T02220172 51016

KJFK 221451Z 02013KT 10SM -RA BKN016 OVC090 13/11 A2992 RMK AO2 SLP131 P0002 60024 T01280106 50004

KLAS 221456Z COR 22005KT 10SM FEW250 18/M03 A2999 RMK AO2 SLP138 T01781028 53027

KLAX 221453Z 13004KT 10SM CLR 17/16 A2993 RMK AO2 SLP133 T01720156 53017

KLGA 221451Z 04012KT 10SM -RA FEW016 OVC020 14/10 A2992 RMK AO2 SLP131 P0000 60014 T01390100 50001

KMCO 221453Z 02006KT 10SM FEW250 SCT300 26/17 A3001 RMK AO2 SLP159 T02610167 51011

KMDW 221453Z VRB04KT 10SM FEW030 09/03 A3037 RMK AO2 SLP287 T00940028 51017

KMEM 221454Z 08009KT 10SM CLR 16/05 A3025 RMK AO2 SLP241 T01560050 51013

KMIA 221453Z COR 03005KT 10SM FEW021 SCT120 BKN170 OVC250 28/21 A2998 RMK AO2 SLP152 TCU DSNT SE T02830211 51012

KMSP 221453Z 15016G21KT 10SM BKN060 BKN250 08/03 A3019 RMK AO2 SLP228 T00830033 56007 PNO $

KORD 221451Z 14006KT 10SM FEW030 09/04 A3036 RMK AO2 SLP284 T00940044 51014

KPDX 221453Z 16011KT 10SM -RA FEW025 BKN044 OVC065 14/12 A2978 RMK AO2 SLP084 P0001 60002 T01440117 55001

KPHL 221519Z 01016G23KT 7SM +RA BKN015 OVC070 13/11 A2988 RMK AO2 PK WND 02026/1455 P0001 T01330111 $

KPHX 221451Z 11003KT 10SM FEW250 22/12 A2994 RMK AO2 SLP122 T02220117 53020

KPIT 221451Z 35012KT 10SM OVC014 09/06 A3016 RMK AO2 SLP226 T00890061 51015

KSAN 221451Z 00000KT 5SM BR CLR 18/15 A2994 RMK AO2 SLP136 T01830150 51013

KSEA 221453Z 16005KT 10SM SCT025 OVC036 13/12 A2970 RMK AO2 RAE21 SLP063 P0002 60026 T01330117 51013

KSFO 221456Z 00000KT 10SM BKN200 15/12 A3004 RMK AO2 SLP173 T01500117 53002 $

KSLC 221453Z 15006KT 10SM FEW100 SCT200 06/01 A3019

KSTL 221451Z 11008KT 10SM CLR 11/06 A3033 RMK AO2 SLP272 T01060056 53011

KTPA 221453Z VRB06KT 10SM FEW130 BKN250 26/14 A3001 RMK AO2 SLP162 T02560139 51014


Page loaded:  15:24 UTC  |   08:24 AM Pacific  |   09:24 AM Mountain  |   10:24 AM Central  |   11:24 AM Eastern

 

ADVISORIES

FORECASTS

FORECASTS

OBSERVATIONS

USER TOOLS

ABOUT US